Widefield, Colorado
Current Conditions -  °F | °C
As of 6:54 PM on Sunday 21 Dec 2014 (Local Time) from KCOS Reporting Station
Scattered Clouds Scattered Clouds  
Wind Chill: 37°   Ceiling: Unl
Heat Index: 44°   Visibility: 10mi
Dew Point: 25°   Wind: 14mph
Humidity: 47%   Direction: 320°NW
Pressure: 29.6"   Gusts: 24mph
Location:  38.7481°N, 104.708°W
Report Text: KCOS 220154Z 32012G21KT 10SM FEW120 SCT250 07/M04 A2960 RMK AO2 SLP028 T00671039
Loading
Personal Weather Stations






























Interactive Weather Map New forecast layout! Learn more

10-Day Weather Forecast

Advertisements
Track Severe Weather on mobile